Time;durP1;ratioP1;P1;durP2;ratioP2;P2;SDS_P1;SDS_P2;PMS_P1;PMS_P2;Temp;Humidity;BMP_temperature;BMP_pressure;BME280_temperature;BME280_humidity;BME280_pressure;Samples;Min_cycle;Max_cycle;Signal;HPM_P1;HPM_P2
2022/12/05 07:56:30;;;;;;;26.02;10.40;;;;;;;1.83;100.00;99146.06;5117856;27;20652;-79
2022/12/05 07:58:57;;;;;;;23.48;10.70;;;;;;;1.93;100.00;99147.00;5109533;28;20052;-79
2022/12/05 08:01:25;;;;;;;27.00;11.15;;;;;;;2.07;100.00;99157.38;5107418;28;20090;-79
2022/12/05 08:03:54;;;;;;;29.23;11.75;;;;;;;2.01;100.00;99123.06;5106196;28;20079;-79
2022/12/05 08:06:23;;;;;;;26.75;11.23;;;;;;;2.13;100.00;99129.19;5108159;28;20036;-79
2022/12/05 08:08:50;;;;;;;24.03;10.77;;;;;;;2.18;100.00;99135.00;5108435;28;20134;-79
2022/12/05 08:11:18;;;;;;;22.63;10.25;;;;;;;2.25;100.00;99135.34;5106332;28;20399;-79
2022/12/05 08:13:47;;;;;;;32.97;10.02;;;;;;;2.22;100.00;99139.13;5107525;28;20055;-79
2022/12/05 08:16:15;;;;;;;25.00;10.43;;;;;;;2.34;100.00;99163.22;5105674;28;20405;-79
2022/12/05 08:18:42;;;;;;;28.67;11.52;;;;;;;2.25;100.00;99152.28;5101346;28;20131;-79
2022/12/05 08:21:10;;;;;;;22.33;11.25;;;;;;;2.40;100.00;99158.16;5107924;28;20040;-79
2022/12/05 08:23:38;;;;;;;26.02;10.60;;;;;;;2.46;100.00;99154.94;5107473;28;20055;-79
2022/12/05 08:26:08;;;;;;;25.00;10.30;;;;;;;2.45;100.00;99153.25;5106274;28;20051;-79
2022/12/05 08:28:35;;;;;;;29.67;10.60;;;;;;;2.65;100.00;99159.56;5106580;28;20052;-79
2022/12/05 08:31:08;;;;;;;24.80;10.65;;;;;;;2.79;100.00;99173.59;5107573;28;20072;-79
2022/12/05 08:33:35;;;;;;;30.50;11.13;;;;;;;2.74;100.00;99157.91;5107083;28;20135;-79
2022/12/05 08:36:03;;;;;;;25.50;10.70;;;;;;;2.81;100.00;99171.63;5107825;28;20411;-79
2022/12/05 08:38:30;;;;;;;27.25;11.25;;;;;;;2.76;100.00;99161.28;5106718;28;20604;-78
2022/12/05 08:41:00;;;;;;;24.23;9.27;;;;;;;2.81;100.00;99150.97;5107251;28;20380;-79
2022/12/05 08:43:26;;;;;;;26.45;9.93;;;;;;;2.89;100.00;99185.25;5086650;28;20135;-79
2022/12/05 08:45:53;;;;;;;28.25;10.05;;;;;;;2.77;100.00;99164.81;5101586;28;20042;-78
2022/12/05 08:48:22;;;;;;;23.83;10.25;;;;;;;2.65;100.00;99172.97;5107643;28;20052;-79
2022/12/05 08:50:49;;;;;;;27.67;10.82;;;;;;;2.64;100.00;99163.22;5108032;28;20051;-79
2022/12/05 08:53:15;;;;;;;21.85;11.13;;;;;;;2.78;100.00;99183.47;5105180;28;20047;-79
2022/12/05 08:55:44;;;;;;;24.83;10.27;;;;;;;2.70;100.00;99161.00;5106059;28;20064;-78
2022/12/05 08:58:10;;;;;;;21.00;9.55;;;;;;;2.91;100.00;99177.88;5105112;28;20051;-79
2022/12/05 09:00:37;;;;;;;28.75;10.88;;;;;;;2.91;100.00;99206.59;5104142;28;20178;-78
2022/12/05 09:03:04;;;;;;;20.65;9.65;;;;;;;2.96;100.00;99204.34;5103197;28;20050;-79
2022/12/05 09:05:32;;;;;;;27.63;11.85;;;;;;;2.83;100.00;99185.75;5105947;28;20079;-79
2022/12/05 09:07:59;;;;;;;20.73;10.73;;;;;;;2.99;100.00;99202.22;5093182;28;20056;-79
2022/12/05 09:10:26;;;;;;;18.73;9.10;;;;;;;2.97;100.00;99208.72;5092111;28;20129;-78
2022/12/05 09:12:53;;;;;;;24.13;10.70;;;;;;;2.96;100.00;99178.31;5092492;28;20681;-79
2022/12/05 09:15:20;;;;;;;24.48;10.73;;;;;;;3.16;100.00;99199.88;5093514;28;20046;-79
2022/12/05 09:17:46;;;;;;;23.83;11.27;;;;;;;3.13;100.00;99202.84;5092079;28;20318;-79
2022/12/05 09:20:13;;;;;;;23.98;10.88;;;;;;;3.15;100.00;99219.69;5093407;28;20074;-79
2022/12/05 09:22:41;;;;;;;20.55;10.18;;;;;;;3.12;100.00;99195.78;5092327;28;20766;-79
2022/12/05 09:25:09;;;;;;;23.13;9.50;;;;;;;3.11;100.00;99199.44;5091229;28;20040;-79
2022/12/05 09:27:35;;;;;;;24.95;11.40;;;;;;;3.19;100.00;99203.16;5093076;28;20451;-79
2022/12/05 09:30:02;;;;;;;26.50;10.73;;;;;;;3.17;100.00;99202.41;5093277;28;20052;-79
2022/12/05 09:32:29;;;;;;;23.35;10.82;;;;;;;3.25;100.00;99201.75;5092356;28;20044;-79
2022/12/05 09:34:55;;;;;;;25.73;10.57;;;;;;;3.29;100.00;99200.47;5088908;28;20135;-79
2022/12/05 09:37:22;;;;;;;21.27;10.13;;;;;;;3.30;100.00;99204.03;5092879;28;20440;-79
2022/12/05 09:39:50;;;;;;;27.35;10.57;;;;;;;3.45;100.00;99220.63;5084009;28;20139;-79
2022/12/05 09:42:43;;;;;;;23.00;10.02;;;;;;;3.40;100.00;99221.00;5092096;28;20131;-79
2022/12/05 09:45:24;;;;;;;18.27;9.30;;;;;;;3.33;100.00;99212.66;5092991;28;20182;-79
2022/12/05 09:47:59;;;;;;;23.42;10.90;;;;;;;3.33;100.00;99215.34;5092816;28;20127;-79
2022/12/05 09:50:28;;;;;;;23.15;9.73;;;;;;;3.43;100.00;99227.94;5093018;28;20136;-79
2022/12/05 09:53:11;;;;;;;18.55;9.55;;;;;;;3.32;100.00;99226.22;5083521;28;20060;-79
2022/12/05 09:55:47;;;;;;;23.13;9.82;;;;;;;3.43;100.00;99239.53;5077407;28;20514;-79
2022/12/05 09:58:25;;;;;;;24.17;10.93;;;;;;;3.60;100.00;99245.25;5092809;28;20052;-79
2022/12/05 10:01:00;;;;;;;21.77;10.35;;;;;;;3.54;100.00;99244.81;5092910;28;20054;-79
2022/12/05 10:03:32;;;;;;;21.58;9.88;;;;;;;3.52;100.00;99236.06;5088827;28;20450;-79
2022/12/05 10:06:10;;;;;;;16.00;8.93;;;;;;;3.52;100.00;99235.19;5090377;28;20048;-79
2022/12/05 10:08:47;;;;;;;19.55;9.48;;;;;;;3.51;100.00;99226.28;5084791;28;20040;-79
2022/12/05 10:11:22;;;;;;;21.05;10.18;;;;;;;3.46;100.00;99208.88;5092382;28;20199;-79
2022/12/05 10:13:59;;;;;;;21.70;9.85;;;;;;;3.61;100.00;99239.72;5091837;28;20047;-79
2022/12/05 10:16:31;;;;;;;21.15;9.40;;;;;;;3.54;100.00;99211.72;5092155;28;20074;-79
2022/12/05 10:19:02;;;;;;;21.08;9.55;;;;;;;3.69;100.00;99234.53;5090080;28;20130;-79
2022/12/05 10:21:33;;;;;;;24.58;9.63;;;;;;;3.65;100.00;99235.78;5084567;28;20070;-79
2022/12/05 10:24:02;;;;;;;20.35;9.98;;;;;;;3.71;100.00;99237.06;5090539;28;20055;-79
2022/12/05 10:26:34;;;;;;;19.88;9.45;;;;;;;3.84;100.00;99243.03;5084347;28;20075;-79
2022/12/05 10:29:12;;;;;;;14.85;8.77;;;;;;;3.82;100.00;99238.78;5089267;28;20256;-79
2022/12/05 10:31:39;;;;;;;20.73;10.15;;;;;;;3.90;100.00;99215.56;5091850;28;20483;-79
2022/12/05 10:34:13;;;;;;;18.05;8.57;;;;;;;4.13;100.00;99246.75;5091340;28;20048;-79
2022/12/05 10:36:56;;;;;;;19.70;9.35;;;;;;;4.01;100.00;99211.06;5092019;28;20056;-79
2022/12/05 10:39:23;;;;;;;21.92;9.93;;;;;;;4.11;100.00;99211.03;5091966;28;20407;-79
2022/12/05 10:41:51;;;;;;;22.42;9.07;;;;;;;4.01;100.00;99217.28;5090282;28;20127;-79
2022/12/05 10:44:18;;;;;;;16.08;7.88;;;;;;;3.88;100.00;99197.88;5090236;28;20507;-79
2022/12/05 10:46:45;;;;;;;18.80;8.82;;;;;;;4.13;100.00;99226.06;5091766;28;20062;-79
2022/12/05 10:49:13;;;;;;;16.00;8.82;;;;;;;3.93;100.00;99217.16;5091664;28;20552;-79
2022/12/05 10:51:40;;;;;;;16.77;9.02;;;;;;;4.00;100.00;99229.00;5091597;28;20044;-79
2022/12/05 10:54:16;;;;;;;19.20;10.10;;;;;;;3.85;100.00;99225.91;5090913;28;20484;-79
2022/12/05 10:56:44;;;;;;;21.90;9.50;;;;;;;3.78;100.00;99224.78;5089622;28;20044;-79
2022/12/05 10:59:14;;;;;;;16.75;8.82;;;;;;;3.87;100.00;99225.78;5087807;28;20582;-79
2022/12/05 11:01:46;;;;;;;19.98;9.15;;;;;;;3.87;100.00;99218.56;5091286;28;20044;-79
2022/12/05 11:04:22;;;;;;;15.73;9.20;;;;;;;3.75;100.00;99206.25;5089752;28;20051;-78
2022/12/05 11:06:54;;;;;;;22.23;8.95;;;;;;;3.85;100.00;99219.69;5091531;28;20615;-79
2022/12/05 11:09:22;;;;;;;20.95;10.27;;;;;;;3.73;100.00;99192.06;5091642;28;20052;-79
2022/12/05 11:12:05;;;;;;;21.13;9.73;;;;;;;3.94;100.00;99218.81;5090038;28;20056;-79
2022/12/05 11:14:35;;;;;;;17.88;8.65;;;;;;;3.93;100.00;99225.22;5082478;28;20044;-79
2022/12/05 11:17:04;;;;;;;17.90;8.95;;;;;;;3.82;100.00;99222.66;5091263;28;20048;-78
2022/12/05 11:19:32;;;;;;;19.40;9.07;;;;;;;3.81;100.00;99210.19;5091218;28;20090;-79
2022/12/05 11:22:00;;;;;;;19.48;9.25;;;;;;;3.82;100.00;99201.97;5091404;28;20048;-79
2022/12/05 11:24:29;;;;;;;18.35;8.57;;;;;;;3.89;100.00;99221.94;5090397;28;20428;-79
2022/12/05 11:26:57;;;;;;;19.42;9.18;;;;;;;3.96;100.00;99211.47;5090079;28;20040;-79
2022/12/05 11:29:34;;;;;;;20.25;8.93;;;;;;;3.94;100.00;99213.44;5083208;28;20042;-79
2022/12/05 11:32:03;;;;;;;18.27;9.00;;;;;;;4.09;100.00;99200.41;5087117;28;20097;-79
2022/12/05 11:34:36;;;;;;;17.60;8.65;;;;;;;4.19;100.00;99217.41;5091740;28;20518;-79
2022/12/05 11:37:11;;;;;;;15.75;8.13;;;;;;;4.18;100.00;99213.00;5092908;28;20048;-79
2022/12/05 11:39:37;;;;;;;15.27;8.38;;;;;;;4.33;100.00;99226.03;5086169;28;20492;-79
2022/12/05 11:42:16;;;;;;;20.00;8.70;;;;;;;4.31;100.00;99203.81;5086710;28;20311;-79
2022/12/05 11:45:16;;;;;;;16.90;8.05;;;;;;;4.45;100.00;99210.59;5088629;28;20048;-80
2022/12/05 11:48:10;;;;;;;15.38;8.50;;;;;;;4.50;100.00;99192.16;5089577;28;20044;-79
2022/12/05 11:50:42;;;;;;;16.52;8.18;;;;;;;4.39;100.00;99193.16;5090529;28;20047;-80
2022/12/05 11:53:29;;;;;;;19.13;9.65;;;;;;;4.45;100.00;99184.50;5089598;28;20566;-80
2022/12/05 11:56:09;;;;;;;22.02;9.18;;;;;;;4.36;100.00;99190.75;5079607;28;20040;-80
2022/12/05 11:58:52;;;;;;;19.13;9.82;;;;;;;4.35;100.00;99192.63;5078355;28;20415;-80
2022/12/05 12:01:32;;;;;;;16.70;8.43;;;;;;;4.45;100.00;99214.13;5087658;28;20406;-79
2022/12/05 12:04:10;;;;;;;;;;;;;;;4.55;100.00;99214.13;5088500;28;20127;-79
2022/12/05 12:06:51;;;;;;;13.45;8.18;;;;;;;4.61;100.00;99202.75;5089210;28;19926;-80
2022/12/05 12:09:33;;;;;;;19.23;8.00;;;;;;;4.56;100.00;99187.03;5087319;28;20051;-80
2022/12/05 12:12:06;;;;;;;21.20;8.40;;;;;;;4.57;100.00;99191.41;5084800;28;20406;-79
2022/12/05 12:14:46;;;;;;;15.20;8.32;;;;;;;4.68;100.00;99206.56;5084803;28;20097;-80
2022/12/05 12:17:25;;;;;;;13.65;7.68;;;;;;;4.78;100.00;99204.66;5088679;28;20093;-80
2022/12/05 12:20:04;;;;;;;14.52;8.15;;;;;;;4.55;100.00;99181.81;5084358;28;20475;-80
2022/12/05 12:22:43;;;;;;;16.48;8.93;;;;;;;4.51;100.00;99197.38;5086890;28;20048;-79
2022/12/05 12:25:24;;;;;;;15.07;8.18;;;;;;;4.53;100.00;99195.41;5087955;28;20145;-80
2022/12/05 12:28:04;;;;;;;17.55;7.88;;;;;;;4.60;100.00;99195.66;5074585;28;20047;-80
2022/12/05 12:30:45;;;;;;;19.75;9.00;;;;;;;4.46;100.00;99196.97;5088159;28;20415;-79
2022/12/05 12:33:21;;;;;;;17.73;9.32;;;;;;;4.63;100.00;99206.16;5087882;28;20055;-80
2022/12/05 12:35:55;;;;;;;20.10;8.50;;;;;;;4.45;100.00;99189.06;5089641;28;20047;-80
2022/12/05 12:38:46;;;;;;;16.63;8.32;;;;;;;4.60;100.00;99218.03;5086225;28;20526;-80
2022/12/05 12:41:29;;;;;;;15.70;8.05;;;;;;;4.48;100.00;99183.38;5081049;28;20506;-80
2022/12/05 12:44:19;;;;;;;18.08;9.43;;;;;;;4.67;100.00;99204.03;5089917;28;20048;-80
2022/12/05 12:46:51;;;;;;;17.58;8.98;;;;;;;4.77;100.00;99196.75;5087349;28;20399;-80
2022/12/05 12:49:43;;;;;;;34.72;17.38;;;;;;;4.81;100.00;99208.94;5087100;28;20048;-80
2022/12/05 12:52:15;;;;;;;25.95;14.32;;;;;;;4.77;100.00;99211.06;5091215;28;20058;-80
2022/12/05 12:55:01;;;;;;;43.45;23.17;;;;;;;4.72;100.00;99194.50;5086482;28;20423;-80
2022/12/05 12:57:38;;;;;;;22.80;13.10;;;;;;;4.68;100.00;99184.16;5081874;28;20048;-80
2022/12/05 13:00:12;;;;;;;23.02;11.13;;;;;;;4.85;100.00;99194.19;5092712;28;20507;-80
2022/12/05 13:02:44;;;;;;;20.55;9.70;;;;;;;4.79;100.00;99190.22;5090633;28;20040;-80
2022/12/05 13:05:23;;;;;;;16.88;7.82;;;;;;;4.82;100.00;99189.09;5090840;28;20787;-80
2022/12/05 13:07:53;;;;;;;16.73;8.63;;;;;;;4.72;100.00;99183.72;5088166;28;20131;-80
2022/12/05 13:10:27;;;;;;;20.50;8.75;;;;;;;4.82;100.00;99197.16;5091568;28;20090;-80
2022/12/05 13:12:55;;;;;;;16.52;8.95;;;;;;;4.77;100.00;99176.06;5091925;28;20044;-80
2022/12/05 13:15:28;;;;;;;16.20;8.13;;;;;;;5.05;100.00;99213.78;5092313;28;20056;-80
2022/12/05 13:17:55;;;;;;;18.92;8.57;;;;;;;4.78;100.00;99180.44;5087991;28;20044;-80
2022/12/05 13:20:27;;;;;;;14.98;8.15;;;;;;;4.74;100.00;99192.53;5091410;28;20074;-80
2022/12/05 13:22:55;;;;;;;15.82;9.00;;;;;;;4.72;100.00;99169.41;5088421;28;20047;-80
2022/12/05 13:25:28;;;;;;;29.83;18.95;;;;;;;4.88;100.00;99188.50;5091675;28;20288;-80
2022/12/05 13:27:58;;;;;;;17.40;10.43;;;;;;;4.75;100.00;99174.50;5092367;28;20071;-80
2022/12/05 13:30:27;;;;;;;19.77;10.75;;;;;;;4.81;100.00;99179.28;5092818;28;20427;-80
2022/12/05 13:32:58;;;;;;;26.52;13.57;;;;;;;4.71;100.00;99175.78;5088613;28;20479;-80
2022/12/05 13:43:58;;;;;;;20.42;10.07;;;;;;;4.71;100.00;99170.41;5092919;28;20110;-80
2022/12/05 13:46:29;;;;;;;20.80;9.93;;;;;;;4.79;100.00;99175.91;5093442;28;20040;-81
2022/12/05 13:49:03;;;;;;;26.65;14.13;;;;;;;4.61;100.00;99178.53;5080106;28;20461;-81
2022/12/05 13:51:34;;;;;;;20.02;11.05;;;;;;;4.70;100.00;99219.88;5083631;28;20052;-80
2022/12/05 13:54:10;;;;;;;16.58;8.20;;;;;;;4.78;100.00;99204.66;5087832;28;20126;-80
2022/12/05 13:56:49;;;;;;;17.38;8.32;;;;;;;4.59;100.00;99202.91;5086779;28;20161;-81
2022/12/05 13:59:49;;;;;;;20.15;9.77;;;;;;;4.64;100.00;99209.69;5089322;28;20143;-80
2022/12/05 14:02:50;;;;;;;20.70;8.45;;;;;;;4.55;100.00;99220.34;5088666;28;20383;-80
2022/12/05 14:05:37;;;;;;;18.25;9.05;;;;;;;4.61;100.00;99224.31;5086208;28;20143;-81
2022/12/05 14:08:45;;;;;;;14.70;8.32;;;;;;;4.50;100.00;99205.59;5087350;28;20071;-80
2022/12/05 14:11:13;;;;;;;17.27;8.60;;;;;;;4.49;100.00;99215.53;5090049;28;20052;-81
2022/12/05 14:13:43;;;;;;;17.23;9.15;;;;;;;4.49;100.00;99220.91;5071853;28;20385;-80
2022/12/05 14:16:29;;;;;;;;;;;;;;;4.47;100.00;99231.00;5084102;28;20052;-80
2022/12/05 14:19:03;;;;;;;18.20;9.18;;;;;;;4.42;100.00;99226.00;5085412;28;19924;-80
2022/12/05 14:21:41;;;;;;;18.27;10.32;;;;;;;4.25;100.00;99208.75;5081044;28;20041;-80
2022/12/05 14:24:17;;;;;;;19.98;10.60;;;;;;;4.33;100.00;99228.72;5071824;28;20048;-80
2022/12/05 14:26:59;;;;;;;21.20;10.73;;;;;;;4.19;100.00;99221.97;5085959;28;20044;-80
2022/12/05 14:29:38;;;;;;;21.23;11.65;;;;;;;4.13;100.00;99207.22;5078835;28;20135;-80
2022/12/05 14:32:19;;;;;;;19.03;10.37;;;;;;;4.11;100.00;99213.72;5090237;28;20311;-80
2022/12/05 14:34:55;;;;;;;20.38;11.77;;;;;;;4.11;100.00;99211.03;5071837;28;20298;-80
2022/12/05 14:37:27;;;;;;;16.10;8.07;;;;;;;4.24;100.00;99228.59;5085401;28;20048;-81
2022/12/05 14:39:56;;;;;;;19.35;9.70;;;;;;;4.11;100.00;99228.06;5091241;28;20199;-80
2022/12/05 14:42:32;;;;;;;16.95;8.65;;;;;;;3.99;100.00;99215.72;5088166;28;20471;-80
2022/12/05 14:45:01;;;;;;;18.15;9.65;;;;;;;3.97;100.00;99215.00;5080792;28;20055;-80
2022/12/05 14:47:30;;;;;;;18.73;9.20;;;;;;;3.94;100.00;99223.38;5079694;28;20388;-80
2022/12/05 14:50:00;;;;;;;20.95;9.63;;;;;;;3.97;100.00;99234.69;5082847;28;20048;-80
2022/12/05 14:52:29;;;;;;;40.63;20.80;;;;;;;3.81;100.00;99219.13;5082606;28;20059;-81
2022/12/05 14:55:02;;;;;;;32.93;17.03;;;;;;;3.92;100.00;99246.88;5089307;28;20449;-81
2022/12/05 14:57:31;;;;;;;21.25;10.02;;;;;;;3.90;100.00;99223.66;5086280;28;20312;-81
2022/12/05 15:00:01;;;;;;;20.25;9.45;;;;;;;3.97;100.00;99240.06;5087394;28;20051;-81
2022/12/05 15:02:34;;;;;;;16.30;10.02;;;;;;;3.93;100.00;99230.59;5087135;28;20058;-81
2022/12/05 15:05:05;;;;;;;20.00;9.65;;;;;;;4.03;100.00;99230.59;5080413;28;20044;-81
2022/12/05 15:07:35;;;;;;;18.02;8.75;;;;;;;4.04;100.00;99246.59;5083287;28;20042;-81
2022/12/05 15:10:06;;;;;;;16.48;8.85;;;;;;;4.09;100.00;99246.16;5087696;28;20562;-80
2022/12/05 15:12:40;;;;;;;18.95;8.98;;;;;;;4.11;100.00;99216.41;5091688;28;20052;-81
2022/12/05 15:15:16;;;;;;;15.93;8.95;;;;;;;4.12;100.00;99221.66;5088982;28;20126;-81
2022/12/05 15:17:46;;;;;;;17.92;9.70;;;;;;;3.95;100.00;99214.31;5085508;28;20131;-81
2022/12/05 15:20:20;;;;;;;22.55;11.63;;;;;;;3.98;100.00;99230.16;5087170;28;20389;-81
2022/12/05 15:22:46;;;;;;;24.02;12.02;;;;;;;3.86;100.00;99222.22;5086467;28;20048;-81
2022/12/05 15:25:29;;;;;;;21.85;10.55;;;;;;;4.00;100.00;99242.47;5087458;28;20044;-81
2022/12/05 15:28:01;;;;;;;32.17;14.77;;;;;;;3.99;100.00;99221.97;5090353;28;20092;-81
2022/12/05 15:30:32;;;;;;;63.53;33.83;;;;;;;3.89;100.00;99221.09;5091132;28;20046;-80
2022/12/05 15:32:59;;;;;;;25.13;12.57;;;;;;;4.01;100.00;99230.72;5090447;28;20086;-80
2022/12/05 15:35:28;;;;;;;21.73;10.63;;;;;;;3.97;100.00;99215.84;5082486;28;20428;-81
2022/12/05 15:37:59;;;;;;;19.35;10.27;;;;;;;3.99;100.00;99245.28;5088976;28;20044;-81
2022/12/05 15:40:27;;;;;;;21.88;10.55;;;;;;;4.01;100.00;99244.19;5086518;28;20055;-81
2022/12/05 15:42:56;;;;;;;24.45;12.63;;;;;;;3.91;100.00;99251.38;5080449;28;20067;-81
2022/12/05 15:45:26;;;;;;;30.45;16.52;;;;;;;3.67;100.00;99228.44;5082754;28;20060;-81
2022/12/05 15:47:56;;;;;;;24.58;11.93;;;;;;;3.73;100.00;99237.78;5079791;28;20044;-81
2022/12/05 15:50:33;;;;;;;30.20;15.00;;;;;;;3.89;100.00;99258.75;5086004;28;20494;-80
2022/12/05 15:53:04;;;;;;;18.85;9.32;;;;;;;3.77;100.00;99249.13;5088887;28;20056;-81
2022/12/05 15:55:37;;;;;;;24.83;11.27;;;;;;;3.76;100.00;99240.19;5085104;28;20123;-81
2022/12/05 15:58:10;;;;;;;35.90;14.25;;;;;;;3.84;100.00;99253.78;5088670;28;20040;-81
2022/12/05 16:00:42;;;;;;;28.63;13.20;;;;;;;3.80;100.00;99263.13;5090952;28;20479;-81
2022/12/05 16:03:15;;;;;;;22.08;11.13;;;;;;;3.80;100.00;99257.75;5091505;28;20051;-82
2022/12/05 16:05:52;;;;;;;30.38;13.25;;;;;;;3.78;100.00;99253.50;5089494;28;20103;-80
2022/12/05 16:08:19;;;;;;;32.42;13.75;;;;;;;3.83;100.00;99270.06;5087109;28;20111;-80
2022/12/05 16:10:45;;;;;;;28.60;13.20;;;;;;;3.73;100.00;99248.53;5092063;28;20055;-80
2022/12/05 16:13:15;;;;;;;41.60;16.17;;;;;;;3.74;100.00;99258.31;5089699;28;20148;-80
2022/12/05 16:15:48;;;;;;;47.80;18.23;;;;;;;3.87;100.00;99261.59;5092017;28;20047;-80
2022/12/05 16:18:25;;;;;;;37.60;12.90;;;;;;;3.78;100.00;99251.66;5089535;28;20049;-80
2022/12/05 16:20:52;;;;;;;35.88;14.57;;;;;;;3.68;100.00;99257.00;5085633;28;20047;-80
2022/12/05 16:23:25;;;;;;;27.58;11.95;;;;;;;3.61;100.00;99252.34;5091587;28;20067;-79
2022/12/05 16:25:52;;;;;;;27.42;12.98;;;;;;;3.57;100.00;99250.91;5089624;28;20048;-79
2022/12/05 16:28:21;;;;;;;29.95;13.45;;;;;;;3.60;100.00;99245.25;5089310;28;20617;-79
2022/12/05 16:30:59;;;;;;;32.00;15.57;;;;;;;3.80;100.00;99286.50;5093258;28;20077;-79
2022/12/05 16:33:27;;;;;;;26.08;12.52;;;;;;;3.75;100.00;99265.41;5089705;28;20044;-79
2022/12/05 16:35:53;;;;;;;36.78;14.63;;;;;;;3.78;100.00;99280.38;5089099;28;20040;-79
2022/12/05 16:38:23;;;;;;;24.33;12.00;;;;;;;3.75;100.00;99281.53;5086231;28;20502;-79
2022/12/05 16:40:56;;;;;;;22.67;11.65;;;;;;;3.66;100.00;99283.19;5090527;28;20495;-79
2022/12/05 16:43:40;;;;;;;29.42;11.40;;;;;;;3.57;100.00;99261.66;5082529;28;20514;-79
2022/12/05 16:46:40;;;;;;;21.70;11.27;;;;;;;3.62;100.00;99276.38;5075103;28;20048;-80
2022/12/05 16:49:20;;;;;;;;;;;;;;;3.63;100.00;99285.28;5092363;28;20487;-79
2022/12/05 16:52:01;;;;;;;19.33;9.80;;;;;;;3.59;100.00;99298.16;5083784;28;19928;-79
2022/12/05 16:54:28;;;;;;;22.02;11.10;;;;;;;3.36;100.00;99271.50;5087140;28;20071;-79
2022/12/05 16:56:55;;;;;;;35.20;19.42;;;;;;;3.45;100.00;99285.13;5086702;28;20102;-79
2022/12/05 16:59:26;;;;;;;24.92;12.63;;;;;;;3.33;100.00;99281.69;5095585;28;20044;-79
2022/12/05 17:01:54;;;;;;;21.33;10.32;;;;;;;3.32;100.00;99275.44;5094570;28;20052;-79
2022/12/05 17:04:21;;;;;;;24.00;12.13;;;;;;;3.39;100.00;99301.78;5092195;28;20131;-79
2022/12/05 17:06:47;;;;;;;19.63;10.00;;;;;;;3.39;100.00;99294.59;5086973;28;20054;-79
2022/12/05 17:09:14;;;;;;;23.73;10.65;;;;;;;3.43;100.00;99285.22;5091622;28;20048;-79
2022/12/05 17:11:44;;;;;;;18.42;9.35;;;;;;;3.29;100.00;99283.78;5094362;28;20052;-79
2022/12/05 17:14:14;;;;;;;19.33;10.45;;;;;;;3.35;100.00;99263.59;5088469;28;20048;-78
2022/12/05 17:16:40;;;;;;;21.80;10.52;;;;;;;3.28;100.00;99274.03;5092698;28;20048;-78
2022/12/05 17:19:09;;;;;;;22.25;11.43;;;;;;;3.26;100.00;99267.94;5093079;28;20072;-78
2022/12/05 17:21:36;;;;;;;21.33;9.93;;;;;;;3.33;100.00;99268.25;5086332;28;20048;-78
2022/12/05 17:24:02;;;;;;;21.67;10.63;;;;;;;3.38;100.00;99270.53;5069021;28;20054;-78
2022/12/05 17:26:29;;;;;;;21.23;9.95;;;;;;;3.24;100.00;99266.34;5064244;28;20067;-79
2022/12/05 17:28:56;;;;;;;17.70;8.82;;;;;;;3.23;100.00;99278.09;5072092;28;20079;-79
2022/12/05 17:31:23;;;;;;;20.50;9.63;;;;;;;3.14;100.00;99274.38;5068992;28;20040;-78
2022/12/05 17:33:52;;;;;;;22.05;11.48;;;;;;;3.05;100.00;99269.81;5069908;28;20134;-79
2022/12/05 17:36:20;;;;;;;17.63;10.88;;;;;;;3.19;100.00;99291.81;5070619;28;20065;-78
2022/12/05 17:38:48;;;;;;;27.67;11.60;;;;;;;3.12;100.00;99279.06;5066814;28;20051;-79
2022/12/05 17:41:16;;;;;;;23.30;9.80;;;;;;;3.09;100.00;99293.59;5062821;28;20052;-78
2022/12/05 17:43:42;;;;;;;21.55;11.10;;;;;;;3.07;100.00;99278.59;5061557;28;20631;-78
2022/12/05 17:46:09;;;;;;;18.80;10.23;;;;;;;3.12;100.00;99296.00;5064219;28;20052;-79
2022/12/05 17:48:36;;;;;;;18.23;10.27;;;;;;;2.89;100.00;99273.84;5064943;28;20044;-78
2022/12/05 17:51:08;;;;;;;18.70;10.18;;;;;;;2.92;100.00;99283.47;5070981;28;20052;-79
2022/12/05 17:53:37;;;;;;;15.38;9.25;;;;;;;2.91;100.00;99296.03;5064727;28;20041;-79
2022/12/05 17:56:05;;;;;;;21.50;9.75;;;;;;;2.92;100.00;99299.56;5061573;28;20056;-79
2022/12/05 17:58:32;;;;;;;22.25;9.63;;;;;;;2.82;100.00;99278.06;5061060;28;20398;-78
2022/12/05 18:00:59;;;;;;;22.25;10.13;;;;;;;2.90;100.00;99296.19;5071857;28;20053;-79
2022/12/05 18:03:26;;;;;;;19.65;9.57;;;;;;;2.93;100.00;99298.59;5058666;28;20542;-79
2022/12/05 18:05:53;;;;;;;17.35;9.68;;;;;;;2.94;100.00;99308.38;5064310;28;20052;-79
2022/12/05 18:08:19;;;;;;;18.13;9.63;;;;;;;2.86;100.00;99302.78;5063697;28;20053;-79
2022/12/05 18:10:49;;;;;;;18.58;9.20;;;;;;;2.80;100.00;99301.47;5060127;28;20052;-79
2022/12/05 18:13:16;;;;;;;18.48;9.20;;;;;;;2.73;100.00;99298.47;5061251;28;20495;-79
2022/12/05 18:15:43;;;;;;;21.50;11.32;;;;;;;2.80;100.00;99313.09;5069699;28;20143;-79
2022/12/05 18:18:15;;;;;;;19.80;9.88;;;;;;;2.61;100.00;99288.81;5070899;28;20374;-79
2022/12/05 18:20:42;;;;;;;23.50;10.52;;;;;;;2.64;100.00;99300.13;5062843;28;20056;-79
2022/12/05 18:23:09;;;;;;;20.40;10.15;;;;;;;2.97;100.00;99308.94;5063787;28;20055;-79
2022/12/05 18:25:36;;;;;;;21.02;9.63;;;;;;;2.88;100.00;99290.94;5063015;28;20155;-79
2022/12/05 18:28:07;;;;;;;18.35;9.30;;;;;;;2.98;100.00;99312.47;5071543;28;20090;-79
2022/12/05 18:30:33;;;;;;;22.33;9.52;;;;;;;2.86;100.00;99305.47;5063248;28;20048;-80
2022/12/05 18:33:00;;;;;;;18.27;9.68;;;;;;;2.83;100.00;99307.44;5068538;28;20059;-79
2022/12/05 18:35:39;;;;;;;17.50;9.77;;;;;;;2.85;100.00;99312.69;5062457;28;20441;-79
2022/12/05 18:38:06;;;;;;;25.35;11.40;;;;;;;2.86;100.00;99300.09;5062895;28;20044;-79
2022/12/05 18:40:33;;;;;;;24.38;10.38;;;;;;;2.74;100.00;99281.41;5066462;28;20044;-79
2022/12/05 18:42:59;;;;;;;22.13;11.30;;;;;;;2.86;100.00;99321.59;5059429;28;20052;-80
2022/12/05 18:45:27;;;;;;;23.80;11.93;;;;;;;2.62;100.00;99296.72;5060472;28;20053;-79
2022/12/05 18:47:54;;;;;;;23.05;12.55;;;;;;;2.69;100.00;99297.03;5071020;28;20051;-79
2022/12/05 18:50:20;;;;;;;20.95;11.63;;;;;;;2.59;100.00;99282.69;5067150;28;20506;-79
2022/12/05 18:52:47;;;;;;;17.17;10.43;;;;;;;2.69;100.00;99304.25;5067751;28;20053;-79
2022/12/05 18:55:16;;;;;;;21.02;11.90;;;;;;;2.51;100.00;99296.78;5058674;28;20056;-79
2022/12/05 18:57:42;;;;;;;18.98;10.63;;;;;;;2.50;100.00;99288.84;5063330;28;20547;-79
2022/12/05 19:00:10;;;;;;;19.63;9.98;;;;;;;2.58;100.00;99318.59;5062078;28;20074;-79
2022/12/05 19:02:38;;;;;;;19.73;8.57;;;;;;;2.35;100.00;99299.91;5063251;28;20052;-79
2022/12/05 19:05:05;;;;;;;16.20;9.25;;;;;;;2.45;100.00;99316.06;5062261;28;20047;-79
2022/12/05 19:07:32;;;;;;;17.35;8.60;;;;;;;2.32;100.00;99299.31;5066073;28;20048;-80
2022/12/05 19:09:58;;;;;;;15.85;8.35;;;;;;;2.41;100.00;99323.53;5066821;28;20052;-79
2022/12/05 19:12:25;;;;;;;17.90;8.88;;;;;;;2.43;100.00;99318.03;5062633;28;20055;-79
2022/12/05 19:14:51;;;;;;;15.30;8.32;;;;;;;2.22;100.00;99313.50;5071313;28;20507;-79
2022/12/05 19:17:18;;;;;;;16.00;8.57;;;;;;;2.18;100.00;99303.16;5091141;28;20048;-80
2022/12/05 19:19:46;;;;;;;19.65;9.73;;;;;;;2.19;100.00;99324.47;5091277;28;20079;-81
2022/12/05 19:22:12;;;;;;;16.60;9.40;;;;;;;2.11;100.00;99309.03;5085620;28;20043;-81
2022/12/05 19:24:39;;;;;;;34.58;18.48;;;;;;;2.20;100.00;99323.50;5090874;28;20040;-80
2022/12/05 19:27:06;;;;;;;70.82;37.33;;;;;;;2.13;100.00;99316.94;5087539;28;20184;-80
2022/12/05 19:29:32;;;;;;;110.82;50.80;;;;;;;2.23;100.00;99315.19;5089746;28;20089;-80
2022/12/05 19:31:59;;;;;;;88.22;41.25;;;;;;;2.25;100.00;99328.50;5090719;28;20077;-80
2022/12/05 19:34:25;;;;;;;60.15;30.27;;;;;;;2.27;100.00;99331.88;5088819;28;20410;-80
2022/12/05 19:36:53;;;;;;;31.17;16.00;;;;;;;2.21;100.00;99333.22;5088633;28;20036;-80
2022/12/05 19:39:24;;;;;;;19.80;10.63;;;;;;;2.05;100.00;99308.69;5089950;28;20724;-80
2022/12/05 19:41:50;;;;;;;19.15;9.88;;;;;;;2.13;100.00;99307.06;5090908;28;20197;-80
2022/12/05 19:44:17;;;;;;;17.98;8.95;;;;;;;2.15;100.00;99323.03;5080134;28;20058;-80
2022/12/05 19:46:44;;;;;;;18.10;9.65;;;;;;;2.32;100.00;99335.06;5083169;28;20055;-81